createdAt,value
2019-03-28T00:00:19.968Z,35.47
2019-03-28T00:02:48.432Z,27.43
2019-03-28T00:05:16.851Z,35.57
2019-03-28T00:07:45.871Z,26.40
2019-03-28T00:10:14.384Z,37.20
2019-03-28T00:12:42.864Z,29.70
2019-03-28T00:15:11.511Z,35.20
2019-03-28T00:17:39.938Z,36.00
2019-03-28T00:20:08.645Z,33.80
2019-03-28T00:22:38.733Z,36.30
2019-03-28T00:25:08.963Z,49.60
2019-03-28T00:27:37.399Z,34.53
2019-03-28T00:30:07.702Z,33.13
2019-03-28T00:32:36.152Z,29.27
2019-03-28T00:35:06.590Z,35.73
2019-03-28T00:37:35.295Z,36.70
2019-03-28T00:40:06.112Z,32.57
2019-03-28T00:42:35.121Z,36.97
2019-03-28T00:45:06.268Z,37.47
2019-03-28T00:47:34.860Z,39.83
2019-03-28T00:50:04.941Z,42.10
2019-03-28T00:52:33.419Z,37.17
2019-03-28T00:55:01.919Z,39.93
2019-03-28T00:57:30.399Z,38.90
2019-03-28T00:59:58.898Z,38.53
2019-03-28T01:02:27.355Z,34.47
2019-03-28T01:04:55.833Z,47.30
2019-03-28T01:07:24.320Z,46.67
2019-03-28T01:09:52.763Z,35.70
2019-03-28T01:12:21.313Z,44.50
2019-03-28T01:14:49.781Z,41.10
2019-03-28T01:17:18.205Z,45.60
2019-03-28T01:19:46.834Z,40.90
2019-03-28T01:22:15.280Z,44.13
2019-03-28T01:24:43.733Z,34.87
2019-03-28T01:27:12.206Z,44.17
2019-03-28T01:29:40.703Z,40.87
2019-03-28T01:32:09.161Z,34.07
2019-03-28T01:34:37.673Z,39.20
2019-03-28T01:37:06.125Z,45.17
2019-03-28T01:39:35.238Z,33.67
2019-03-28T01:42:04.008Z,47.83
2019-03-28T01:44:32.492Z,47.73
2019-03-28T01:47:00.940Z,36.27
2019-03-28T01:49:30.740Z,40.80
2019-03-28T01:51:59.168Z,50.53
2019-03-28T01:54:27.625Z,44.53
2019-03-28T01:56:56.052Z,42.67
2019-03-28T01:59:24.492Z,40.67
2019-03-28T02:01:52.940Z,36.70
2019-03-28T02:04:21.400Z,39.60
2019-03-28T02:06:49.816Z,38.53
2019-03-28T02:09:18.264Z,39.20
2019-03-28T02:11:46.684Z,47.47
2019-03-28T02:14:15.210Z,48.40
2019-03-28T02:16:43.655Z,40.70
2019-03-28T02:19:12.085Z,41.97
2019-03-28T02:21:40.547Z,41.80
2019-03-28T02:24:08.999Z,40.10
2019-03-28T02:26:37.425Z,47.83
2019-03-28T02:29:05.865Z,46.33
2019-03-28T02:31:34.293Z,40.10
2019-03-28T02:34:02.725Z,43.30
2019-03-28T02:36:31.178Z,37.50
2019-03-28T02:38:59.597Z,39.47
2019-03-28T02:41:28.032Z,39.63
2019-03-28T02:43:56.478Z,38.43
2019-03-28T02:46:24.959Z,51.30
2019-03-28T02:48:53.890Z,50.23
2019-03-28T02:51:23.195Z,48.23
2019-03-28T02:53:51.664Z,40.00
2019-03-28T02:56:20.084Z,43.73
2019-03-28T02:58:48.518Z,50.10
2019-03-28T03:01:16.946Z,37.83
2019-03-28T03:03:45.359Z,52.40
2019-03-28T03:06:13.794Z,54.87
2019-03-28T03:08:42.200Z,51.03
2019-03-28T03:11:10.618Z,53.10
2019-03-28T03:13:40.613Z,42.77
2019-03-28T03:16:09.045Z,45.63
2019-03-28T03:18:37.526Z,48.67
2019-03-28T03:21:05.990Z,49.03
2019-03-28T03:23:34.442Z,42.80
2019-03-28T03:26:02.951Z,49.90
2019-03-28T03:28:31.413Z,46.13
2019-03-28T03:30:59.879Z,44.37
2019-03-28T03:33:28.305Z,46.73
2019-03-28T03:35:56.739Z,43.83
2019-03-28T03:38:25.154Z,55.07
2019-03-28T03:40:54.728Z,64.67
2019-03-28T03:43:23.600Z,46.83
2019-03-28T03:45:52.107Z,59.77
2019-03-28T03:48:20.524Z,36.57
2019-03-28T03:50:48.989Z,47.17
2019-03-28T03:53:17.437Z,50.80
2019-03-28T03:55:46.163Z,37.80
2019-03-28T03:58:16.828Z,51.43
2019-03-28T04:00:44.910Z,54.93
2019-03-28T04:03:13.363Z,45.33
2019-03-28T04:05:41.810Z,38.50
2019-03-28T04:08:12.206Z,43.83
2019-03-28T04:10:40.667Z,78.50
2019-03-28T04:13:09.103Z,50.93
2019-03-28T04:15:38.046Z,43.23
2019-03-28T04:18:08.008Z,45.20
2019-03-28T04:20:36.440Z,42.47
2019-03-28T04:23:04.891Z,43.40
2019-03-28T04:25:33.315Z,53.03
2019-03-28T04:28:01.769Z,91.73
2019-03-28T04:30:30.180Z,53.07
2019-03-28T04:32:58.621Z,42.67
2019-03-28T04:35:27.073Z,41.43
2019-03-28T04:37:55.484Z,41.47
2019-03-28T04:40:23.937Z,46.07
2019-03-28T04:42:52.361Z,42.37
2019-03-28T04:45:20.972Z,44.80
2019-03-28T04:47:49.590Z,49.73
2019-03-28T04:50:18.024Z,48.70
2019-03-28T04:52:46.473Z,42.00
2019-03-28T04:55:14.956Z,46.90
2019-03-28T04:57:43.365Z,49.23
2019-03-28T05:00:12.264Z,40.23
2019-03-28T05:02:41.385Z,39.77
2019-03-28T05:05:10.814Z,40.67
2019-03-28T05:07:39.263Z,45.93
2019-03-28T05:10:09.201Z,42.33
2019-03-28T05:12:37.645Z,44.70
2019-03-28T05:15:09.592Z,46.40
2019-03-28T05:17:38.033Z,41.30
2019-03-28T05:20:08.288Z,45.73
2019-03-28T05:22:36.718Z,39.70
2019-03-28T05:25:06.617Z,41.90
2019-03-28T05:27:35.039Z,43.00
2019-03-28T05:30:08.584Z,37.27
2019-03-28T05:32:37.017Z,39.93
2019-03-28T05:35:08.577Z,49.20
2019-03-28T05:37:37.036Z,44.47
2019-03-28T05:40:06.798Z,51.73
2019-03-28T05:42:35.209Z,42.93
2019-03-28T05:45:05.779Z,43.10
2019-03-28T05:47:34.203Z,49.30
2019-03-28T05:50:02.632Z,42.10
2019-03-28T05:52:31.136Z,49.00
2019-03-28T05:54:59.617Z,45.47
2019-03-28T05:57:28.068Z,44.93
2019-03-28T05:59:56.520Z,45.40
2019-03-28T06:02:25.210Z,38.93
2019-03-28T06:04:53.630Z,47.97
2019-03-28T06:07:22.138Z,43.23
2019-03-28T06:09:54.230Z,39.83
2019-03-28T06:12:22.686Z,44.47
2019-03-28T06:14:51.088Z,43.57
2019-03-28T06:17:19.574Z,44.87
2019-03-28T06:19:48.083Z,56.57
2019-03-28T06:22:16.507Z,44.27
2019-03-28T06:24:44.938Z,42.47
2019-03-28T06:27:16.402Z,62.47
2019-03-28T06:29:44.824Z,48.20
2019-03-28T06:32:13.295Z,59.67
2019-03-28T06:34:41.824Z,44.23
2019-03-28T06:37:10.266Z,44.40
2019-03-28T06:39:38.704Z,47.97
2019-03-28T06:42:07.142Z,44.00
2019-03-28T06:44:35.654Z,40.90
2019-03-28T06:47:04.076Z,51.70
2019-03-28T06:49:32.602Z,54.43
2019-03-28T06:52:01.002Z,48.37
2019-03-28T06:54:30.590Z,40.20
2019-03-28T06:56:59.343Z,46.33
2019-03-28T06:59:37.395Z,45.07
2019-03-28T07:02:04.727Z,42.27
2019-03-28T07:04:37.067Z,46.43
2019-03-28T07:07:06.630Z,40.83
2019-03-28T07:09:35.422Z,46.27
2019-03-28T07:12:05.462Z,39.93
2019-03-28T07:14:37.484Z,39.90
2019-03-28T07:17:05.916Z,45.83
2019-03-28T07:19:34.835Z,59.07
2019-03-28T07:22:05.682Z,47.30
2019-03-28T07:24:38.724Z,50.27
2019-03-28T07:27:07.240Z,37.83
2019-03-28T07:29:36.058Z,43.60
2019-03-28T07:32:07.763Z,47.53
2019-03-28T07:34:40.512Z,49.63
2019-03-28T07:37:10.859Z,47.17
2019-03-28T07:39:39.670Z,44.83
2019-03-28T07:42:08.676Z,53.13
2019-03-28T07:44:40.073Z,36.50
2019-03-28T07:47:08.506Z,43.10
2019-03-28T07:49:37.765Z,43.50
2019-03-28T07:52:08.774Z,42.47
2019-03-28T07:54:40.737Z,53.27
2019-03-28T07:57:08.847Z,56.43
2019-03-28T07:59:37.385Z,45.73
2019-03-28T08:02:09.881Z,38.83
2019-03-28T08:04:42.833Z,47.43
2019-03-28T08:07:11.829Z,49.30
2019-03-28T08:09:40.583Z,39.90
2019-03-28T08:12:22.382Z,53.07
2019-03-28T08:14:44.085Z,44.90
2019-03-28T08:17:20.062Z,48.07
2019-03-28T08:19:51.610Z,50.60
2019-03-28T08:22:20.047Z,46.30
2019-03-28T08:24:48.490Z,51.30
2019-03-28T08:27:20.179Z,44.43
2019-03-28T08:29:50.707Z,46.70
2019-03-28T08:32:21.157Z,69.67
2019-03-28T08:34:49.589Z,51.47
2019-03-28T08:37:21.606Z,50.43
2019-03-28T08:39:53.947Z,48.83
2019-03-28T08:42:22.599Z,51.30
2019-03-28T08:44:51.446Z,48.50
2019-03-28T08:47:22.382Z,54.23
2019-03-28T08:49:54.534Z,38.60
2019-03-28T08:52:22.974Z,39.33
2019-03-28T08:54:51.434Z,55.53
2019-03-28T08:57:22.457Z,53.40
2019-03-28T08:59:54.968Z,53.80
2019-03-28T09:02:23.732Z,54.43
2019-03-28T09:04:52.153Z,44.70
2019-03-28T09:07:24.104Z,43.83
2019-03-28T09:09:55.187Z,42.57
2019-03-28T09:12:23.904Z,44.80
2019-03-28T09:14:52.342Z,41.90
2019-03-28T09:17:24.020Z,49.23
2019-03-28T09:19:57.244Z,51.30
2019-03-28T09:22:25.698Z,51.43
2019-03-28T09:24:54.131Z,55.53
2019-03-28T09:27:26.488Z,54.73
2019-03-28T09:29:58.558Z,48.20
2019-03-28T09:32:29.107Z,54.00
2019-03-28T09:34:58.745Z,59.90
2019-03-28T09:37:27.586Z,63.30
2019-03-28T09:39:59.823Z,53.23
2019-03-28T09:42:28.337Z,52.53
2019-03-28T09:44:57.072Z,60.77
2019-03-28T09:47:30.315Z,58.53
2019-03-28T09:50:02.416Z,50.87
2019-03-28T09:52:35.002Z,53.57
2019-03-28T09:55:08.825Z,67.63
2019-03-28T09:57:38.525Z,78.63
2019-03-28T10:00:09.177Z,68.17
2019-03-28T10:02:39.061Z,51.20
2019-03-28T10:05:10.547Z,54.77
2019-03-28T10:07:45.532Z,53.13
2019-03-28T10:10:20.601Z,53.77
2019-03-28T10:12:53.993Z,60.03
2019-03-28T10:15:26.952Z,58.80
2019-03-28T10:17:57.248Z,49.50
2019-03-28T10:20:27.157Z,57.47
2019-03-28T10:22:55.615Z,70.87
2019-03-28T10:25:27.068Z,55.40
2019-03-28T10:27:56.405Z,71.13
2019-03-28T10:30:42.697Z,60.57
2019-03-28T10:33:11.619Z,72.40
2019-03-28T10:35:43.942Z,58.27
2019-03-28T10:38:14.227Z,66.37
2019-03-28T10:40:42.993Z,65.93
2019-03-28T10:43:13.120Z,52.67
2019-03-28T10:45:44.015Z,53.23
2019-03-28T10:48:12.483Z,48.30
2019-03-28T10:50:45.280Z,54.87
2019-03-28T10:53:13.092Z,52.57
2019-03-28T10:55:46.129Z,50.80
2019-03-28T10:58:19.195Z,47.77
2019-03-28T11:00:49.540Z,44.43
2019-03-28T11:03:17.780Z,47.90
2019-03-28T11:05:47.386Z,49.17
2019-03-28T11:08:19.530Z,39.97
2019-03-28T11:10:47.991Z,35.93
2019-03-28T11:13:16.477Z,38.47
2019-03-28T11:15:47.742Z,41.63
2019-03-28T11:18:22.843Z,32.83
2019-03-28T11:20:53.647Z,30.20
2019-03-28T11:23:22.975Z,37.43
2019-03-28T11:25:51.429Z,43.43
2019-03-28T11:28:23.499Z,33.07
2019-03-28T11:30:55.507Z,29.27
2019-03-28T11:33:23.937Z,27.50
2019-03-28T11:35:52.387Z,22.53
2019-03-28T11:38:23.881Z,39.77
2019-03-28T11:40:54.461Z,29.27
2019-03-28T11:43:22.897Z,38.57
2019-03-28T11:45:51.681Z,32.67
2019-03-28T11:48:24.141Z,21.00
2019-03-28T11:50:56.605Z,25.87
2019-03-28T11:53:25.301Z,25.77
2019-03-28T11:55:53.741Z,23.70
2019-03-28T11:58:24.835Z,23.57
2019-03-28T12:00:54.619Z,30.90
2019-03-28T12:03:23.421Z,23.87
2019-03-28T12:05:53.623Z,24.77
2019-03-28T12:08:26.480Z,22.30
2019-03-28T12:10:57.179Z,22.07
2019-03-28T12:13:25.917Z,21.00
2019-03-28T12:15:54.896Z,28.53
2019-03-28T12:18:27.590Z,20.20
2019-03-28T12:20:57.310Z,25.17
2019-03-28T12:23:26.099Z,24.53
2019-03-28T12:25:55.310Z,25.40
2019-03-28T12:28:27.467Z,30.83
2019-03-28T12:30:55.691Z,28.90
2019-03-28T12:33:24.098Z,22.50
2019-03-28T12:35:54.518Z,23.60
2019-03-28T12:38:23.169Z,26.60
2019-03-28T12:40:52.307Z,34.67
2019-03-28T12:43:23.462Z,29.60
2019-03-28T12:45:56.049Z,67.93
2019-03-28T12:48:30.506Z,31.67
2019-03-28T12:50:59.032Z,32.90
2019-03-28T12:53:26.519Z,36.20
2019-03-28T12:56:00.083Z,29.07
2019-03-28T12:58:32.819Z,32.10
2019-03-28T13:01:03.745Z,35.90
2019-03-28T13:03:44.890Z,34.33
2019-03-28T13:06:02.332Z,34.13
2019-03-28T13:08:33.476Z,39.37
2019-03-28T13:11:06.917Z,44.47
2019-03-28T13:13:38.791Z,36.87
2019-03-28T13:16:07.242Z,37.57
2019-03-28T13:18:36.182Z,48.03
2019-03-28T13:21:13.653Z,32.03
2019-03-28T13:23:43.691Z,33.63
2019-03-28T13:26:15.628Z,53.23
2019-03-28T13:28:48.380Z,34.07
2019-03-28T13:31:17.470Z,34.97
2019-03-28T13:33:46.255Z,38.03
2019-03-28T13:36:16.252Z,42.10
2019-03-28T13:38:48.368Z,39.67
2019-03-28T13:41:17.474Z,33.40
2019-03-28T13:43:46.114Z,47.87
2019-03-28T13:46:19.086Z,39.03
2019-03-28T13:48:50.774Z,44.10
2019-03-28T13:51:26.859Z,34.33
2019-03-28T13:53:58.153Z,33.00
2019-03-28T13:56:26.592Z,32.90
2019-03-28T13:58:55.074Z,42.33
2019-03-28T14:01:29.657Z,35.80
2019-03-28T14:04:02.654Z,35.73
2019-03-28T14:06:35.052Z,44.60
2019-03-28T14:09:08.196Z,40.67
2019-03-28T14:11:44.778Z,40.40
2019-03-28T14:14:18.816Z,64.00
2019-03-28T14:16:53.151Z,45.30
2019-03-28T14:19:24.980Z,38.53
2019-03-28T14:21:56.487Z,35.87
2019-03-28T14:24:24.636Z,41.90
2019-03-28T14:26:53.070Z,38.27
2019-03-28T14:29:25.044Z,41.27
2019-03-28T14:31:55.124Z,39.37
2019-03-28T14:34:23.716Z,41.50
2019-03-28T14:36:53.424Z,44.93
2019-03-28T14:39:26.017Z,47.53
2019-03-28T14:41:54.646Z,44.13
2019-03-28T14:44:23.528Z,39.40
2019-03-28T14:46:54.884Z,46.37
2019-03-28T14:49:27.181Z,44.70
2019-03-28T14:51:56.345Z,76.37
2019-03-28T14:54:25.264Z,44.33
2019-03-28T14:56:55.532Z,43.73
2019-03-28T14:59:32.668Z,45.97
2019-03-28T15:02:02.032Z,40.70
2019-03-28T15:04:30.725Z,42.10
2019-03-28T15:06:59.888Z,54.00
2019-03-28T15:09:30.224Z,41.83
2019-03-28T15:12:02.188Z,43.07
2019-03-28T15:14:30.573Z,44.20
2019-03-28T15:16:59.013Z,48.63
2019-03-28T15:19:29.828Z,47.47
2019-03-28T15:21:58.521Z,49.13
2019-03-28T15:24:27.334Z,46.27
2019-03-28T15:26:58.121Z,51.40
2019-03-28T15:29:30.227Z,49.57
2019-03-28T15:31:58.650Z,51.83
2019-03-28T15:34:27.083Z,47.63
2019-03-28T15:37:01.008Z,65.13
2019-03-28T15:39:32.571Z,62.80
2019-03-28T15:42:02.882Z,48.13
2019-03-28T15:44:31.685Z,54.63
2019-03-28T15:47:00.719Z,64.57
2019-03-28T15:49:33.148Z,65.83
2019-03-28T15:52:08.754Z,55.03
2019-03-28T15:54:41.577Z,48.17
2019-03-28T15:57:10.403Z,53.30
2019-03-28T15:59:38.875Z,51.37
2019-03-28T16:02:08.865Z,61.87
2019-03-28T16:04:38.287Z,44.53
2019-03-28T16:07:07.700Z,52.53
2019-03-28T16:09:37.045Z,54.73
2019-03-28T16:12:09.279Z,54.70
2019-03-28T16:14:39.427Z,102.47
2019-03-28T16:17:08.597Z,62.37
2019-03-28T16:19:37.389Z,54.03
2019-03-28T16:22:06.980Z,61.07
2019-03-28T16:24:40.148Z,57.93
2019-03-28T16:27:08.602Z,65.10
2019-03-28T16:29:37.131Z,59.47
2019-03-28T16:32:05.664Z,54.67
2019-03-28T16:34:34.271Z,67.57
2019-03-28T16:37:02.811Z,68.30
2019-03-28T16:39:31.213Z,65.60
2019-03-28T16:41:59.767Z,68.30
2019-03-28T16:44:28.329Z,76.83
2019-03-28T16:46:56.791Z,71.70
2019-03-28T16:49:25.361Z,62.23
2019-03-28T16:51:53.825Z,64.83
2019-03-28T16:54:22.373Z,74.47
2019-03-28T16:56:51.015Z,60.83
2019-03-28T16:59:19.610Z,61.33
2019-03-28T17:01:48.032Z,50.40
2019-03-28T17:04:21.136Z,67.90
2019-03-28T17:06:46.902Z,51.90
2019-03-28T17:09:15.323Z,46.97
2019-03-28T17:11:43.784Z,55.30
2019-03-28T17:14:12.276Z,53.43
2019-03-28T17:16:40.754Z,52.07
2019-03-28T17:19:09.287Z,47.67
2019-03-28T17:21:37.720Z,58.03
2019-03-28T17:24:06.245Z,57.10
2019-03-28T17:26:34.699Z,49.03
2019-03-28T17:29:03.337Z,62.70
2019-03-28T17:31:31.795Z,50.93
2019-03-28T17:34:00.254Z,52.47
2019-03-28T17:36:29.159Z,54.77
2019-03-28T17:38:57.654Z,61.63
2019-03-28T17:41:26.220Z,49.60
2019-03-28T17:43:54.644Z,57.40
2019-03-28T17:46:23.326Z,59.30
2019-03-28T17:48:51.769Z,69.57
2019-03-28T17:51:20.327Z,55.77
2019-03-28T17:53:48.744Z,59.00
2019-03-28T17:56:17.196Z,59.13
2019-03-28T17:58:45.681Z,56.07
2019-03-28T18:01:14.178Z,60.67
2019-03-28T18:03:42.625Z,67.87
2019-03-28T18:06:11.201Z,48.00
2019-03-28T18:08:39.753Z,51.20
2019-03-28T18:11:08.193Z,47.83
2019-03-28T18:13:36.644Z,45.90
2019-03-28T18:16:05.276Z,45.30
2019-03-28T18:18:33.769Z,47.40
2019-03-28T18:21:02.399Z,42.80
2019-03-28T18:23:30.863Z,48.23
2019-03-28T18:25:59.729Z,44.97
2019-03-28T18:28:31.371Z,42.53
2019-03-28T18:30:58.460Z,42.00
2019-03-28T18:33:26.980Z,44.80
2019-03-28T18:35:55.392Z,49.30
2019-03-28T18:38:23.916Z,43.30
2019-03-28T18:40:52.411Z,42.40
2019-03-28T18:43:20.878Z,46.43
2019-03-28T18:45:49.346Z,52.30
2019-03-28T18:48:29.160Z,48.70
2019-03-28T18:50:48.070Z,47.53
2019-03-28T18:53:16.704Z,44.50
2019-03-28T18:55:45.156Z,47.80
2019-03-28T18:58:13.621Z,48.83
2019-03-28T19:00:42.078Z,54.57
2019-03-28T19:03:10.532Z,53.37
2019-03-28T19:05:39.053Z,48.03
2019-03-28T19:08:07.499Z,46.27
2019-03-28T19:10:36.075Z,60.43
2019-03-28T19:13:04.964Z,54.90
2019-03-28T19:15:38.927Z,59.13
2019-03-28T19:18:07.405Z,50.87
2019-03-28T19:20:36.212Z,69.37
2019-03-28T19:23:07.204Z,55.10
2019-03-28T19:25:35.284Z,53.53
2019-03-28T19:28:07.256Z,53.40
2019-03-28T19:30:34.642Z,53.67
2019-03-28T19:33:06.663Z,49.40
2019-03-28T19:35:34.903Z,82.10
2019-03-28T19:38:04.000Z,62.50
2019-03-28T19:40:32.900Z,51.20
2019-03-28T19:43:01.598Z,50.93
2019-03-28T19:45:36.039Z,50.70
2019-03-28T19:48:05.634Z,58.33
2019-03-28T19:50:34.207Z,65.37
2019-03-28T19:53:02.731Z,68.33
2019-03-28T19:55:31.295Z,60.07
2019-03-28T19:57:59.836Z,52.83
2019-03-28T20:00:28.510Z,65.10
2019-03-28T20:03:00.270Z,58.67
2019-03-28T20:05:27.216Z,63.80
2019-03-28T20:07:55.681Z,70.80
2019-03-28T20:10:24.305Z,58.93
2019-03-28T20:12:52.748Z,81.70
2019-03-28T20:15:21.287Z,65.63
2019-03-28T20:17:50.429Z,68.47
2019-03-28T20:20:21.700Z,63.00
2019-03-28T20:22:50.331Z,54.00
2019-03-28T20:25:18.907Z,57.53
2019-03-28T20:27:47.538Z,61.33
2019-03-28T20:30:16.383Z,60.67
2019-03-28T20:32:44.793Z,61.33
2019-03-28T20:35:13.605Z,62.03
2019-03-28T20:37:42.055Z,75.73
2019-03-28T20:40:10.838Z,65.60
2019-03-28T20:42:39.274Z,60.53
2019-03-28T20:45:10.736Z,59.80
2019-03-28T20:47:39.597Z,57.60
2019-03-28T20:50:09.777Z,61.20
2019-03-28T20:52:38.294Z,75.83
2019-03-28T20:55:07.647Z,68.80
2019-03-28T20:57:36.263Z,70.57
2019-03-28T21:00:08.647Z,62.47
2019-03-28T21:02:38.032Z,61.70
2019-03-28T21:05:08.225Z,70.30
2019-03-28T21:07:36.819Z,62.80
2019-03-28T21:10:07.547Z,61.37
2019-03-28T21:12:37.205Z,78.30
2019-03-28T21:15:07.427Z,70.83
2019-03-28T21:17:36.029Z,56.67
2019-03-28T21:20:06.567Z,59.03
2019-03-28T21:22:35.165Z,64.30
2019-03-28T21:25:04.706Z,66.60
2019-03-28T21:27:37.818Z,57.40
2019-03-28T21:30:07.413Z,55.00
2019-03-28T21:32:35.851Z,55.10
2019-03-28T21:35:06.417Z,56.53
2019-03-28T21:37:34.832Z,70.63
2019-03-28T21:40:03.821Z,68.03
2019-03-28T21:42:32.224Z,58.90
2019-03-28T21:45:00.733Z,72.37
2019-03-28T21:47:29.178Z,67.60
2019-03-28T21:49:57.708Z,65.50
2019-03-28T21:52:26.128Z,58.63
2019-03-28T21:54:54.675Z,71.77
2019-03-28T21:57:23.085Z,62.60
2019-03-28T21:59:51.504Z,78.47
2019-03-28T22:02:19.994Z,61.23
2019-03-28T22:04:48.495Z,74.33
2019-03-28T22:07:17.058Z,67.70
2019-03-28T22:09:45.508Z,60.23
2019-03-28T22:12:13.935Z,64.83
2019-03-28T22:14:42.388Z,73.10
2019-03-28T22:17:10.913Z,60.50
2019-03-28T22:19:39.352Z,61.43
2019-03-28T22:22:10.802Z,60.73
2019-03-28T22:24:39.458Z,72.73
2019-03-28T22:27:08.307Z,65.97
2019-03-28T22:29:36.723Z,62.17
2019-03-28T22:32:05.218Z,66.33
2019-03-28T22:34:34.031Z,61.17
2019-03-28T22:37:03.679Z,74.83
2019-03-28T22:39:32.313Z,76.60
2019-03-28T22:42:00.880Z,64.60
2019-03-28T22:44:29.341Z,56.23
2019-03-28T22:46:57.753Z,74.73
2019-03-28T22:49:26.175Z,57.37
2019-03-28T22:51:54.624Z,68.17
2019-03-28T22:54:23.060Z,74.00
2019-03-28T22:56:51.592Z,61.83
2019-03-28T22:59:20.285Z,70.70
2019-03-28T23:01:49.214Z,68.17
2019-03-28T23:04:17.676Z,71.70
2019-03-28T23:06:46.102Z,63.57
2019-03-28T23:09:15.088Z,53.43
2019-03-28T23:11:43.545Z,66.90
2019-03-28T23:14:11.961Z,55.67
2019-03-28T23:16:40.425Z,65.90
2019-03-28T23:19:11.840Z,70.30
2019-03-28T23:21:39.045Z,59.50
2019-03-28T23:24:07.514Z,70.43
2019-03-28T23:26:35.974Z,62.80
2019-03-28T23:29:04.413Z,74.03
2019-03-28T23:31:32.864Z,73.57
2019-03-28T23:34:01.338Z,68.30
2019-03-28T23:36:29.764Z,70.30
2019-03-28T23:38:58.253Z,75.90
2019-03-28T23:41:26.742Z,65.33
2019-03-28T23:43:55.165Z,71.90
2019-03-28T23:46:23.599Z,81.40
2019-03-28T23:48:52.073Z,65.53
2019-03-28T23:51:20.477Z,69.63
2019-03-28T23:53:48.926Z,67.63
2019-03-28T23:56:17.338Z,65.30
2019-03-28T23:58:46.207Z,68.33
